createdAt,value
2024-01-27T00:01:59.199Z,6.72
2024-01-27T00:07:01.048Z,6.92
2024-01-27T00:12:02.914Z,6.89
2024-01-27T00:17:04.584Z,6.81
2024-01-27T00:22:06.620Z,6.86
2024-01-27T00:27:08.344Z,6.88
2024-01-27T00:32:10.027Z,6.71
2024-01-27T00:37:11.640Z,7.07
2024-01-27T00:42:13.557Z,6.80
2024-01-27T00:47:15.255Z,6.98
2024-01-27T00:52:16.843Z,6.88
2024-01-27T00:57:18.504Z,6.82
2024-01-27T01:02:20.224Z,6.86
2024-01-27T01:07:21.851Z,6.61
2024-01-27T01:12:23.662Z,6.64
2024-01-27T01:17:25.390Z,6.76
2024-01-27T01:22:27.000Z,6.75
2024-01-27T01:27:28.751Z,6.68
2024-01-27T01:32:30.383Z,6.54
2024-01-27T01:37:32.357Z,6.39
2024-01-27T01:42:34.069Z,6.49
2024-01-27T01:47:35.824Z,6.28
2024-01-27T01:52:38.458Z,6.34
2024-01-27T01:57:40.150Z,6.57
2024-01-27T02:02:44.678Z,6.46
2024-01-27T02:07:46.267Z,6.57
2024-01-27T02:12:47.946Z,6.25
2024-01-27T02:17:49.676Z,6.32
2024-01-27T02:22:51.329Z,6.45
2024-01-27T02:27:53.319Z,6.34
2024-01-27T02:32:58.577Z,6.28
2024-01-27T02:38:00.241Z,6.23
2024-01-27T02:43:02.160Z,6.15
2024-01-27T02:48:04.430Z,6.24
2024-01-27T02:53:06.149Z,6.41
2024-01-27T02:58:07.814Z,6.13
2024-01-27T03:03:09.556Z,6.35
2024-01-27T03:08:11.415Z,6.13
2024-01-27T03:13:13.062Z,6.12
2024-01-27T03:18:14.824Z,6.25
2024-01-27T03:23:16.473Z,6.24
2024-01-27T03:28:18.092Z,6.11
2024-01-27T03:33:19.855Z,5.90
2024-01-27T03:38:21.533Z,6.21
2024-01-27T03:43:23.146Z,5.88
2024-01-27T03:48:25.327Z,6.03
2024-01-27T03:53:26.981Z,6.14
2024-01-27T03:58:28.590Z,6.06
2024-01-27T04:03:30.257Z,6.32
2024-01-27T04:08:31.975Z,6.43
2024-01-27T04:13:33.589Z,6.21
2024-01-27T04:18:35.344Z,6.38
2024-01-27T04:23:37.131Z,6.18
2024-01-27T04:28:38.795Z,6.05
2024-01-27T04:33:40.712Z,6.33
2024-01-27T04:38:44.670Z,6.18
2024-01-27T04:43:46.275Z,6.01
2024-01-27T04:48:48.388Z,6.04
2024-01-27T04:53:51.673Z,6.04
2024-01-27T04:58:53.438Z,5.96
2024-01-27T05:03:55.205Z,5.85
2024-01-27T05:08:57.079Z,5.76
2024-01-27T05:13:59.969Z,6.09
2024-01-27T05:19:01.713Z,6.08
2024-01-27T05:24:03.556Z,6.00
2024-01-27T05:29:05.286Z,5.96
2024-01-27T05:34:07.067Z,5.91
2024-01-27T05:39:09.492Z,5.88
2024-01-27T05:44:11.117Z,6.02
2024-01-27T05:49:12.930Z,5.99
2024-01-27T05:54:17.743Z,6.00
2024-01-27T05:59:19.663Z,5.89
2024-01-27T06:04:21.302Z,6.08
2024-01-27T06:09:23.110Z,5.99
2024-01-27T06:14:24.921Z,5.86
2024-01-27T06:19:26.724Z,5.87
2024-01-27T06:24:28.481Z,5.93
2024-01-27T06:29:30.270Z,6.06
2024-01-27T06:34:33.414Z,6.10
2024-01-27T06:39:35.230Z,5.98
2024-01-27T06:44:36.869Z,5.72
2024-01-27T06:49:38.759Z,6.08
2024-01-27T06:54:44.999Z,6.20
2024-01-27T06:59:53.451Z,6.19
2024-01-27T07:04:55.843Z,5.88
2024-01-27T07:09:58.251Z,6.15
2024-01-27T07:15:01.021Z,5.74
2024-01-27T07:20:03.003Z,5.99
2024-01-27T07:25:05.134Z,6.14
2024-01-27T07:30:09.738Z,6.04
2024-01-27T07:35:11.570Z,5.98
2024-01-27T07:40:13.536Z,5.96
2024-01-27T07:45:16.079Z,6.01
2024-01-27T07:50:17.896Z,6.09
2024-01-27T07:55:19.472Z,6.17
2024-01-27T08:00:21.344Z,6.17
2024-01-27T08:05:23.025Z,6.26
2024-01-27T08:10:24.818Z,6.35
2024-01-27T08:15:26.508Z,6.27
2024-01-27T08:20:28.137Z,6.30
2024-01-27T08:25:29.812Z,6.02
2024-01-27T08:30:31.533Z,6.20
2024-01-27T08:35:33.302Z,6.46
2024-01-27T08:40:35.292Z,6.12
2024-01-27T08:45:38.948Z,6.54
2024-01-27T08:50:40.680Z,6.53
2024-01-27T08:55:42.550Z,6.40
2024-01-27T09:00:44.278Z,6.38
2024-01-27T09:05:46.376Z,6.19
2024-01-27T09:10:48.047Z,6.49
2024-01-27T09:15:49.840Z,6.49
2024-01-27T09:20:51.586Z,6.56
2024-01-27T09:25:53.260Z,6.61
2024-01-27T09:30:55.119Z,6.65
2024-01-27T09:35:56.872Z,6.62
2024-01-27T09:40:58.540Z,6.76
2024-01-27T09:46:00.593Z,6.90
2024-01-27T09:51:03.682Z,6.82
2024-01-27T09:56:05.672Z,6.68
2024-01-27T10:01:08.210Z,6.85
2024-01-27T10:06:10.964Z,6.94
2024-01-27T10:11:15.174Z,6.95
2024-01-27T10:16:16.838Z,6.84
2024-01-27T10:21:19.677Z,7.01
2024-01-27T10:26:21.355Z,6.93
2024-01-27T10:31:29.981Z,7.03
2024-01-27T10:36:42.264Z,7.19
2024-01-27T10:41:47.422Z,7.05
2024-01-27T10:46:50.315Z,7.24
2024-01-27T10:51:59.729Z,7.10
2024-01-27T10:57:03.112Z,7.23
2024-01-27T11:02:05.716Z,7.27
2024-01-27T11:07:08.326Z,6.94
2024-01-27T11:12:10.381Z,7.30
2024-01-27T11:17:12.174Z,7.36
2024-01-27T11:22:30.065Z,7.34
2024-01-27T11:27:31.789Z,7.18
2024-01-27T11:32:34.017Z,7.39
2024-01-27T11:37:36.413Z,7.14
2024-01-27T11:42:38.127Z,7.38
2024-01-27T11:47:39.852Z,7.69
2024-01-27T11:52:41.556Z,7.31
2024-01-27T11:57:43.479Z,7.59
2024-01-27T12:02:45.192Z,7.20
2024-01-27T12:07:46.939Z,7.49
2024-01-27T12:12:48.587Z,7.48
2024-01-27T12:17:52.705Z,7.57
2024-01-27T12:23:07.385Z,7.73
2024-01-27T12:28:09.907Z,7.79
2024-01-27T12:33:13.427Z,7.85
2024-01-27T12:38:15.156Z,7.72
2024-01-27T12:43:16.851Z,7.82
2024-01-27T12:48:18.523Z,7.75
2024-01-27T12:53:20.286Z,7.87
2024-01-27T12:58:21.940Z,7.94
2024-01-27T13:03:23.681Z,8.00
2024-01-27T13:08:26.088Z,7.77
2024-01-27T13:13:27.888Z,7.89
2024-01-27T13:18:29.711Z,7.78
2024-01-27T13:23:31.533Z,7.89
2024-01-27T13:28:33.360Z,7.95
2024-01-27T13:33:36.588Z,8.08
2024-01-27T13:38:38.850Z,8.00
2024-01-27T13:43:40.769Z,7.79
2024-01-27T13:48:43.259Z,7.85
2024-01-27T13:53:47.652Z,7.83
2024-01-27T13:58:50.040Z,7.76
2024-01-27T14:03:52.133Z,7.82
2024-01-27T14:08:53.925Z,7.83
2024-01-27T14:13:56.837Z,7.84
2024-01-27T14:18:58.665Z,7.88
2024-01-27T14:24:07.497Z,7.86
2024-01-27T14:29:09.157Z,7.73
2024-01-27T14:34:11.168Z,7.90
2024-01-27T14:39:13.204Z,7.75
2024-01-27T14:44:15.037Z,7.71
2024-01-27T14:49:17.292Z,7.71
2024-01-27T14:54:21.199Z,7.60
2024-01-27T14:59:23.129Z,7.62
2024-01-27T15:04:27.861Z,7.63
2024-01-27T15:09:29.596Z,7.61
2024-01-27T15:14:32.956Z,7.67
2024-01-27T15:19:40.578Z,7.68
2024-01-27T15:24:43.185Z,7.45
2024-01-27T15:29:44.940Z,7.54
2024-01-27T15:34:46.693Z,7.36
2024-01-27T15:39:48.548Z,7.46
2024-01-27T15:44:50.203Z,7.49
2024-01-27T15:49:57.978Z,7.34
2024-01-27T15:55:00.198Z,7.26
2024-01-27T16:00:01.977Z,7.09
2024-01-27T16:05:06.682Z,7.21
2024-01-27T16:10:08.635Z,6.96
2024-01-27T16:15:10.858Z,6.95
2024-01-27T16:20:12.764Z,6.96
2024-01-27T16:25:15.120Z,6.92
2024-01-27T16:30:17.384Z,6.83
2024-01-27T16:35:20.217Z,6.78
2024-01-27T16:40:22.513Z,6.61
2024-01-27T16:45:24.223Z,6.74
2024-01-27T16:50:25.895Z,6.54
2024-01-27T16:55:27.621Z,6.70
2024-01-27T17:00:29.336Z,6.90
2024-01-27T17:05:30.965Z,6.69
2024-01-27T17:10:32.766Z,6.16
2024-01-27T17:15:35.769Z,6.20
2024-01-27T17:20:37.521Z,6.40
2024-01-27T17:25:39.331Z,6.27
2024-01-27T17:30:41.474Z,6.36
2024-01-27T17:35:43.232Z,6.16
2024-01-27T17:40:44.941Z,6.26
2024-01-27T17:45:46.674Z,6.11
2024-01-27T17:50:48.351Z,6.09
2024-01-27T17:55:50.807Z,6.11
2024-01-27T18:00:52.799Z,5.91
2024-01-27T18:05:54.778Z,5.79
2024-01-27T18:10:56.409Z,5.78
2024-01-27T18:15:58.963Z,5.73
2024-01-27T18:21:00.721Z,5.67
2024-01-27T18:26:02.394Z,5.73
2024-01-27T18:31:04.364Z,5.61
2024-01-27T18:36:06.201Z,5.63
2024-01-27T18:41:07.879Z,5.58
2024-01-27T18:46:09.595Z,5.76
2024-01-27T18:51:11.241Z,5.89
2024-01-27T18:56:14.347Z,5.78
2024-01-27T19:01:15.995Z,5.63
2024-01-27T19:06:19.604Z,5.74
2024-01-27T19:11:22.162Z,5.54
2024-01-27T19:16:23.983Z,5.60
2024-01-27T19:21:25.641Z,5.45
2024-01-27T19:26:27.278Z,5.34
2024-01-27T19:31:28.999Z,5.20
2024-01-27T19:36:30.681Z,5.24
2024-01-27T19:41:32.488Z,5.24
2024-01-27T19:46:34.145Z,5.21
2024-01-27T19:51:41.762Z,5.15
2024-01-27T19:56:43.404Z,5.12
2024-01-27T20:01:45.126Z,4.94
2024-01-27T20:06:48.678Z,4.98
2024-01-27T20:11:50.658Z,5.12
2024-01-27T20:16:52.283Z,5.06
2024-01-27T20:21:53.918Z,5.10
2024-01-27T20:26:55.520Z,5.08
2024-01-27T20:31:57.210Z,4.92
2024-01-27T20:36:58.877Z,4.85
2024-01-27T20:42:00.687Z,4.93
2024-01-27T20:47:02.361Z,4.84
2024-01-27T20:52:04.868Z,4.71
2024-01-27T20:57:06.562Z,4.59
2024-01-27T21:02:08.236Z,4.71
2024-01-27T21:07:10.450Z,4.68
2024-01-27T21:12:12.138Z,4.62
2024-01-27T21:17:13.920Z,4.61
2024-01-27T21:22:15.611Z,4.63
2024-01-27T21:27:17.393Z,4.48
2024-01-27T21:32:20.990Z,4.40
2024-01-27T21:37:24.265Z,4.11
2024-01-27T21:42:25.894Z,4.29
2024-01-27T21:47:27.544Z,3.98
2024-01-27T21:52:29.344Z,3.96
2024-01-27T21:57:31.091Z,3.88
2024-01-27T22:02:38.988Z,3.67
2024-01-27T22:07:42.503Z,3.86
2024-01-27T22:12:45.952Z,3.88
2024-01-27T22:17:47.632Z,3.62
2024-01-27T22:22:49.269Z,3.59
2024-01-27T22:27:50.961Z,3.54
2024-01-27T22:32:53.387Z,3.61
2024-01-27T22:37:56.583Z,3.41
2024-01-27T22:42:58.570Z,3.29
2024-01-27T22:48:03.419Z,3.37
2024-01-27T22:53:05.198Z,3.42
2024-01-27T22:58:06.857Z,3.39
2024-01-27T23:03:10.189Z,3.19
2024-01-27T23:08:13.494Z,3.14
2024-01-27T23:13:22.230Z,3.34
2024-01-27T23:18:24.012Z,3.27
2024-01-27T23:23:26.239Z,3.24
2024-01-27T23:28:27.908Z,3.08
2024-01-27T23:33:29.735Z,3.17
2024-01-27T23:38:31.401Z,3.13
2024-01-27T23:43:33.131Z,2.95
2024-01-27T23:48:35.203Z,3.06
2024-01-27T23:53:39.101Z,2.91
2024-01-27T23:58:40.740Z,3.01
